Time;durP1;ratioP1;P1;durP2;ratioP2;P2;SDS_P1;SDS_P2;PMS_P1;PMS_P2;Temp;Humidity;BMP_temperature;BMP_pressure;BME280_temperature;BME280_humidity;BME280_pressure;Samples;Min_cycle;Max_cycle;Signal;HPM_P1;HPM_P2
2022/12/14 00:00:45;;;;;;;29.83;24.37;;;;;;;2.03;63.29;94606.28;5047941;28;20238;-67
2022/12/14 00:03:11;;;;;;;30.43;24.63;;;;;;;2.42;62.43;94605.97;5041685;28;20281;-67
2022/12/14 00:05:37;;;;;;;28.97;23.73;;;;;;;2.57;62.40;94600.63;5042210;28;20279;-66
2022/12/14 00:08:03;;;;;;;32.40;25.77;;;;;;;2.63;62.07;94600.97;5037035;28;20221;-66
2022/12/14 00:10:29;;;;;;;33.63;25.90;;;;;;;2.64;62.10;94601.78;5045643;28;20200;-66
2022/12/14 00:12:54;;;;;;;29.03;24.97;;;;;;;2.64;62.07;94605.22;5045907;28;20233;-67
2022/12/14 00:15:20;;;;;;;28.63;23.40;;;;;;;2.70;63.04;94605.69;5050100;28;20233;-66
2022/12/14 00:17:45;;;;;;;27.43;24.00;;;;;;;2.78;63.04;94613.75;5028524;28;20231;-66
2022/12/14 00:20:11;;;;;;;29.67;24.23;;;;;;;2.82;62.70;94610.81;5034923;28;20336;-66
2022/12/14 00:22:36;;;;;;;31.20;25.30;;;;;;;2.78;63.34;94618.94;5030690;28;20183;-66
2022/12/14 00:25:02;;;;;;;27.03;23.10;;;;;;;2.77;63.37;94618.13;5025555;28;20261;-66
2022/12/14 00:27:27;;;;;;;21.60;18.83;;;;;;;2.68;63.81;94618.81;5029485;28;20223;-66
2022/12/14 00:29:53;;;;;;;20.33;18.13;;;;;;;2.71;64.44;94622.94;5038459;28;20706;-66
2022/12/14 00:32:18;;;;;;;18.17;16.27;;;;;;;2.64;64.87;94613.00;5029524;28;20293;-66
2022/12/14 00:34:44;;;;;;;17.20;15.40;;;;;;;2.67;65.14;94611.13;5028681;28;20228;-66
2022/12/14 00:37:09;;;;;;;16.10;14.47;;;;;;;2.79;64.76;94608.44;5049008;28;20515;-67
2022/12/14 00:39:35;;;;;;;16.47;14.77;;;;;;;2.75;64.61;94598.41;5049068;28;20233;-67
2022/12/14 00:42:00;;;;;;;16.53;14.70;;;;;;;2.81;64.29;94606.56;5046386;28;20213;-67
2022/12/14 00:44:26;;;;;;;15.33;13.73;;;;;;;2.85;64.04;94613.16;5043080;28;20237;-69
2022/12/14 00:46:51;;;;;;;16.13;14.50;;;;;;;2.87;63.84;94605.28;5040006;28;20230;-68
2022/12/14 00:49:16;;;;;;;15.63;14.00;;;;;;;2.70;64.90;94608.28;5044155;28;20194;-69
2022/12/14 00:51:42;;;;;;;16.97;14.90;;;;;;;2.75;64.32;94613.97;5040335;28;20308;-68
2022/12/14 00:54:07;;;;;;;15.07;13.57;;;;;;;2.68;64.67;94607.59;5051985;28;20221;-68
2022/12/14 00:56:33;;;;;;;16.43;14.73;;;;;;;2.76;64.55;94618.25;5048710;28;20222;-68
2022/12/14 00:58:58;;;;;;;15.47;13.33;;;;;;;2.80;64.27;94615.28;5045124;28;20225;-68
2022/12/14 01:01:24;;;;;;;14.20;12.73;;;;;;;2.77;64.50;94619.88;5045114;28;20182;-67
2022/12/14 01:03:49;;;;;;;13.73;12.20;;;;;;;2.75;64.41;94620.00;5042535;28;20197;-68
2022/12/14 01:06:16;;;;;;;13.27;11.93;;;;;;;2.80;64.19;94617.06;5048336;28;20232;-67
2022/12/14 01:08:42;;;;;;;13.50;12.20;;;;;;;2.84;64.05;94614.13;5036501;28;20226;-68
2022/12/14 01:11:08;;;;;;;12.57;11.27;;;;;;;2.76;64.58;94610.47;5042210;28;20233;-69
2022/12/14 01:13:35;;;;;;;14.33;11.50;;;;;;;2.76;64.74;94607.84;5042631;28;20212;-69
2022/12/14 01:16:06;;;;;;;12.23;10.97;;;;;;;2.80;64.48;94624.84;5054521;28;20228;-69
2022/12/14 01:18:34;;;;;;;13.17;11.77;;;;;;;2.75;64.48;94614.78;5042351;28;20222;-69
2022/12/14 01:21:29;;;;;;;11.87;10.77;;;;;;;2.58;64.53;94616.06;5041706;28;20221;-69
2022/12/14 01:24:00;;;;;;;11.53;9.67;;;;;;;2.67;64.57;94611.13;5025856;28;20271;-69
2022/12/14 01:26:26;;;;;;;11.37;10.20;;;;;;;2.69;64.90;94615.25;5013337;28;20222;-69
2022/12/14 01:28:57;;;;;;;9.43;8.53;;;;;;;2.74;63.93;94613.16;5004862;28;20233;-69
2022/12/14 01:31:31;;;;;;;10.43;9.40;;;;;;;2.56;64.61;94604.13;5009646;28;20194;-68
2022/12/14 01:33:56;;;;;;;9.87;8.87;;;;;;;2.63;64.06;94606.16;5029575;28;20221;-69
2022/12/14 01:36:25;;;;;;;9.63;8.63;;;;;;;2.61;64.24;94602.03;5014048;28;20218;-69
2022/12/14 01:38:56;;;;;;;11.23;9.77;;;;;;;2.69;64.18;94601.47;5047732;28;20229;-69
2022/12/14 01:41:31;;;;;;;9.93;9.03;;;;;;;2.64;64.33;94599.19;5030054;28;20225;-69
2022/12/14 01:44:03;;;;;;;10.13;9.03;;;;;;;2.59;64.18;94581.38;5025574;28;20217;-69
2022/12/14 01:46:38;;;;;;;11.03;9.47;;;;;;;2.63;64.77;94585.41;5032351;28;20189;-67
2022/12/14 01:49:24;;;;;;;10.27;9.23;;;;;;;2.65;64.52;94583.53;5032841;28;20204;-67
2022/12/14 01:51:56;;;;;;;10.13;9.23;;;;;;;2.52;65.13;94575.00;5045273;28;20237;-66
2022/12/14 01:54:25;;;;;;;10.47;9.47;;;;;;;2.51;65.01;94575.91;5023056;28;20277;-67
2022/12/14 01:56:52;;;;;;;10.33;9.30;;;;;;;2.43;65.71;94578.25;5031270;28;20233;-67
2022/12/14 01:59:23;;;;;;;11.47;9.60;;;;;;;2.47;65.30;94579.69;5026845;28;20222;-67
2022/12/14 02:01:49;;;;;;;9.93;8.93;;;;;;;2.32;65.58;94578.22;5048448;28;20218;-65
2022/12/14 02:04:17;;;;;;;11.00;9.90;;;;;;;2.44;65.46;94574.72;5044080;28;20232;-66
2022/12/14 02:06:45;;;;;;;10.30;9.30;;;;;;;2.33;66.04;94567.75;5024310;28;20275;-65
2022/12/14 02:09:18;;;;;;;10.27;9.27;;;;;;;2.40;66.00;94573.28;5024203;28;20227;-65
2022/12/14 02:12:11;;;;;;;11.40;10.10;;;;;;;2.27;66.57;94580.31;5019344;28;20329;-68
2022/12/14 02:14:37;;;;;;;10.80;9.70;;;;;;;2.28;66.13;94567.25;5020781;28;20238;-68
2022/12/14 02:17:05;;;;;;;10.20;9.20;;;;;;;2.19;66.37;94575.69;5018632;28;20313;-68
2022/12/14 02:19:31;;;;;;;10.43;9.43;;;;;;;2.27;65.81;94557.78;5023736;28;20195;-68
2022/12/14 02:22:02;;;;;;;10.40;9.30;;;;;;;2.14;66.53;94560.47;5029446;28;20263;-68
2022/12/14 02:24:46;;;;;;;10.80;9.70;;;;;;;2.31;66.12;94566.19;5037351;28;20382;-68
2022/12/14 02:27:36;;;;;;;10.07;9.03;;;;;;;2.26;65.83;94556.16;5023364;28;20260;-68
2022/12/14 02:30:06;;;;;;;9.90;8.77;;;;;;;2.37;65.72;94555.34;5023791;28;20305;-68
2022/12/14 02:32:52;;;;;;;9.90;9.00;;;;;;;2.08;66.06;94552.31;5016075;28;20234;-68
2022/12/14 02:35:30;;;;;;;9.70;8.70;;;;;;;2.32;65.34;94553.09;5022098;28;20316;-66
2022/12/14 02:38:20;;;;;;;10.00;9.00;;;;;;;2.20;65.29;94546.22;5022896;28;20598;-66
2022/12/14 02:41:01;;;;;;;11.10;8.70;;;;;;;2.19;65.53;94539.38;5006247;28;20218;-67
2022/12/14 02:43:53;;;;;;;10.20;9.20;;;;;;;2.28;65.09;94549.09;5016391;28;20594;-67
2022/12/14 02:46:41;;;;;;;10.07;9.07;;;;;;;2.33;65.04;94552.19;5034804;28;20191;-66
2022/12/14 02:49:24;;;;;;;11.77;9.40;;;;;;;2.42;64.70;94545.47;5003962;28;20198;-66
2022/12/14 02:52:15;;;;;;;10.37;9.13;;;;;;;2.31;65.43;94533.28;5026768;28;20260;-66
2022/12/14 02:54:49;;;;;;;11.97;9.83;;;;;;;2.29;65.27;94539.53;5050818;28;20226;-66
2022/12/14 02:57:21;;;;;;;12.13;10.57;;;;;;;2.00;66.05;94537.31;5050600;28;20222;-66
2022/12/14 02:59:50;;;;;;;10.30;9.30;;;;;;;2.27;65.62;94537.03;5043113;28;20221;-67
2022/12/14 03:02:16;;;;;;;10.83;9.43;;;;;;;2.33;65.28;94530.59;5054543;28;20280;-67
2022/12/14 03:04:46;;;;;;;11.30;10.20;;;;;;;2.42;65.17;94548.06;5041737;28;20222;-66
2022/12/14 03:07:44;;;;;;;10.80;9.70;;;;;;;2.44;64.52;94528.03;5020344;28;20314;-66
2022/12/14 03:10:47;;;;;;;10.70;9.27;;;;;;;2.49;64.63;94543.25;4996916;28;20388;-66
2022/12/14 03:13:24;;;;;;;10.00;9.00;;;;;;;2.52;63.96;94535.25;4947496;29;20284;-67
2022/12/14 03:16:06;;;;;;;9.70;8.70;;;;;;;2.43;63.80;94542.78;4950136;29;20232;-66
2022/12/14 03:18:40;;;;;;;9.80;8.90;;;;;;;2.18;65.05;94537.72;4943902;29;20258;-66
2022/12/14 03:21:10;;;;;;;11.03;9.50;;;;;;;2.15;64.53;94533.59;4933223;29;20228;-67
2022/12/14 03:23:39;;;;;;;10.83;9.70;;;;;;;2.15;64.65;94538.78;4946846;28;20248;-66
2022/12/14 03:26:23;;;;;;;10.53;9.40;;;;;;;2.29;64.29;94544.72;4934619;29;20292;-66
2022/12/14 03:28:54;;;;;;;11.33;10.20;;;;;;;2.37;64.67;94529.41;4944767;29;20236;-66
2022/12/14 03:31:31;;;;;;;10.20;9.20;;;;;;;2.32;63.77;94529.75;4929962;28;20255;-66
2022/12/14 03:33:59;;;;;;;10.50;9.50;;;;;;;2.14;63.81;94524.16;4951715;29;20217;-66
2022/12/14 03:36:29;;;;;;;10.10;9.20;;;;;;;2.29;63.37;94532.56;4937961;29;20235;-67
2022/12/14 03:38:59;;;;;;;9.50;8.60;;;;;;;2.35;62.79;94528.69;4938707;29;20228;-67
2022/12/14 03:41:36;;;;;;;8.90;8.10;;;;;;;2.44;62.85;94533.22;4936194;29;20234;-67
2022/12/14 03:44:26;;;;;;;9.03;8.13;;;;;;;2.24;63.40;94531.25;4946849;28;20264;-67
2022/12/14 03:47:14;;;;;;;10.83;9.07;;;;;;;2.30;64.16;94541.19;4963578;28;20220;-67
2022/12/14 03:49:39;;;;;;;8.80;7.90;;;;;;;2.34;64.11;94542.63;4968448;28;20295;-67
2022/12/14 03:52:13;;;;;;;9.40;8.40;;;;;;;2.48;63.01;94537.22;5005541;28;20301;-67
2022/12/14 03:55:00;;;;;;;8.93;8.00;;;;;;;2.19;63.74;94529.84;5002433;28;20254;-67
2022/12/14 03:57:55;;;;;;;9.23;8.37;;;;;;;2.25;63.57;94525.16;5002302;28;20231;-68
2022/12/14 04:00:23;;;;;;;8.63;7.77;;;;;;;2.27;63.43;94525.84;4992861;28;20224;-66
2022/12/14 04:02:49;;;;;;;9.20;8.40;;;;;;;2.29;63.12;94531.75;4991453;28;20228;-67
2022/12/14 04:05:25;;;;;;;9.37;8.20;;;;;;;2.33;63.10;94535.78;4990381;28;20235;-66
2022/12/14 04:08:13;;;;;;;10.13;8.63;;;;;;;2.34;62.13;94537.44;5012191;28;20218;-66
2022/12/14 04:19:45;;;;;;;9.73;8.73;;;;;;;2.47;63.09;94542.53;4990600;28;20230;-66
2022/12/14 04:22:17;;;;;;;10.10;9.10;;;;;;;2.49;63.14;94531.09;4974682;28;20215;-66
2022/12/14 04:28:04;;;;;;;10.50;9.40;;;;;;;2.38;62.70;94542.28;4990922;28;20263;-66
2022/12/14 04:30:33;;;;;;;12.00;10.53;;;;;;;2.31;63.16;94529.88;4968783;28;20242;-65
2022/12/14 04:35:54;;;;;;;11.50;10.40;;;;;;;2.42;62.42;94535.09;4992572;28;20254;-66
2022/12/14 04:38:35;;;;;;;10.97;9.87;;;;;;;2.42;62.90;94542.88;4976485;28;20230;-65
2022/12/14 04:41:07;;;;;;;10.47;9.53;;;;;;;2.35;62.98;94549.44;4975662;28;20231;-65
2022/12/14 04:43:37;;;;;;;9.97;8.93;;;;;;;2.41;63.00;94547.25;4975710;28;20184;-66
2022/12/14 04:46:07;;;;;;;9.70;8.80;;;;;;;2.44;62.88;94551.38;4975222;28;20206;-65
2022/12/14 04:48:57;;;;;;;9.87;8.87;;;;;;;2.52;62.71;94556.00;4976125;28;20238;-66
2022/12/14 04:51:34;;;;;;;8.93;8.03;;;;;;;2.42;62.29;94555.84;4990694;28;20233;-67
2022/12/14 04:54:24;;;;;;;9.50;8.60;;;;;;;2.49;61.79;94559.66;5018376;28;20229;-66
2022/12/14 04:57:22;;;;;;;9.77;8.47;;;;;;;2.49;62.28;94557.06;5039092;28;20230;-67
2022/12/14 04:59:48;;;;;;;9.63;8.53;;;;;;;2.51;62.40;94549.13;5044995;28;20214;-67
2022/12/14 05:02:25;;;;;;;9.30;8.30;;;;;;;2.54;62.22;94554.94;5043632;28;20228;-67
2022/12/14 05:05:10;;;;;;;14.83;9.07;;;;;;;2.45;62.46;94557.38;5041902;28;20267;-67
2022/12/14 05:07:54;;;;;;;9.27;8.37;;;;;;;2.43;62.88;94547.97;5041805;28;20198;-67
2022/12/14 05:10:40;;;;;;;9.10;8.20;;;;;;;2.59;62.26;94541.59;5057444;28;20197;-68
2022/12/14 05:13:28;;;;;;;8.80;7.90;;;;;;;2.57;62.42;94540.91;5059158;28;20275;-68
2022/12/14 05:15:57;;;;;;;9.60;8.53;;;;;;;2.55;62.75;94555.78;5044333;28;20308;-68
2022/12/14 05:18:22;;;;;;;9.27;7.87;;;;;;;2.54;61.48;94554.94;5040194;28;20256;-68
2022/12/14 05:20:49;;;;;;;9.73;8.50;;;;;;;2.65;61.40;94561.94;5046425;28;20315;-68
2022/12/14 05:23:15;;;;;;;9.43;8.30;;;;;;;2.69;61.86;94567.72;5042762;28;20230;-68
2022/12/14 05:25:40;;;;;;;9.00;8.13;;;;;;;2.73;61.19;94575.16;5048857;28;20705;-68
2022/12/14 05:28:06;;;;;;;10.10;9.20;;;;;;;2.68;61.67;94572.09;5041946;28;20245;-68
2022/12/14 05:30:32;;;;;;;9.47;8.57;;;;;;;2.73;62.17;94584.72;5057169;28;20228;-68
2022/12/14 05:32:58;;;;;;;8.93;8.03;;;;;;;2.68;61.72;94592.03;5035712;28;20232;-67
2022/12/14 05:35:23;;;;;;;9.17;8.17;;;;;;;2.73;61.81;94601.13;5042615;28;20233;-67
2022/12/14 05:37:49;;;;;;;10.43;9.13;;;;;;;2.76;61.83;94613.06;5042793;28;20221;-68
2022/12/14 05:40:15;;;;;;;8.87;7.50;;;;;;;2.73;61.44;94610.69;5042021;28;20205;-67
2022/12/14 05:42:41;;;;;;;8.17;7.37;;;;;;;2.69;61.52;94593.66;5037792;28;20221;-66
2022/12/14 05:45:06;;;;;;;9.20;8.30;;;;;;;2.77;61.20;94596.53;5042491;28;20225;-67
2022/12/14 05:47:32;;;;;;;8.33;7.30;;;;;;;2.67;61.14;94579.97;5032713;28;20233;-67
2022/12/14 05:49:58;;;;;;;8.00;7.20;;;;;;;2.70;61.27;94584.94;5040375;28;20222;-68
2022/12/14 05:52:25;;;;;;;8.17;7.23;;;;;;;2.70;60.83;94585.78;5040876;28;20217;-67
2022/12/14 05:54:50;;;;;;;8.77;7.97;;;;;;;2.80;61.03;94588.50;5023675;28;20198;-66
2022/12/14 05:57:16;;;;;;;8.13;7.40;;;;;;;2.70;61.25;94577.13;5046080;28;20228;-66
2022/12/14 05:59:41;;;;;;;7.93;7.20;;;;;;;2.62;59.98;94585.53;5048725;28;20275;-66
2022/12/14 06:02:07;;;;;;;8.63;7.73;;;;;;;2.47;61.79;94587.47;5043876;28;20217;-66
2022/12/14 06:04:32;;;;;;;8.30;7.60;;;;;;;2.41;61.77;94595.72;5041991;28;20357;-66
2022/12/14 06:06:57;;;;;;;9.50;7.90;;;;;;;2.23;63.58;94599.66;5055482;28;20190;-67
2022/12/14 06:09:23;;;;;;;10.13;9.13;;;;;;;2.30;63.89;94593.06;5040298;28;20222;-68
2022/12/14 06:11:49;;;;;;;10.17;9.23;;;;;;;2.23;64.51;94597.88;5045173;28;20232;-67
2022/12/14 06:14:15;;;;;;;11.20;10.20;;;;;;;2.35;64.90;94609.97;5051573;28;20237;-66
2022/12/14 06:16:43;;;;;;;10.67;9.67;;;;;;;2.34;64.70;94599.69;5022176;28;20312;-69
2022/12/14 06:19:10;;;;;;;11.33;10.20;;;;;;;2.33;65.19;94603.25;5041361;28;20193;-69
2022/12/14 06:21:37;;;;;;;11.63;10.63;;;;;;;1.96;66.97;94598.94;5043202;28;20234;-64
2022/12/14 06:24:04;;;;;;;11.87;10.67;;;;;;;1.64;68.74;94600.41;5023051;28;20217;-67
2022/12/14 06:26:30;;;;;;;12.60;11.30;;;;;;;1.34;69.01;94599.03;5048224;28;20312;-65
2022/12/14 06:28:57;;;;;;;11.53;10.43;;;;;;;1.32;68.67;94621.59;5039993;28;20221;-66
2022/12/14 06:31:24;;;;;;;11.97;10.87;;;;;;;1.54;68.55;94626.94;5039728;28;20202;-68
2022/12/14 06:33:52;;;;;;;12.53;10.73;;;;;;;1.67;68.65;94631.28;5044966;28;20205;-68
2022/12/14 06:36:22;;;;;;;19.30;12.90;;;;;;;1.97;67.60;94628.28;5045154;28;20222;-68
2022/12/14 06:38:52;;;;;;;13.83;12.43;;;;;;;2.06;67.35;94622.47;5045139;28;20248;-68
2022/12/14 06:41:19;;;;;;;13.90;12.53;;;;;;;2.21;66.74;94616.16;5037325;28;20217;-68
2022/12/14 06:43:44;;;;;;;13.97;12.57;;;;;;;2.27;66.29;94621.81;5033439;28;20229;-68
2022/12/14 06:46:12;;;;;;;13.70;12.17;;;;;;;2.30;66.31;94608.63;5022201;28;20274;-69
2022/12/14 06:48:37;;;;;;;14.20;12.13;;;;;;;2.52;65.81;94618.28;5039231;28;20229;-67
2022/12/14 06:51:05;;;;;;;14.03;12.63;;;;;;;2.46;66.39;94623.91;5036197;28;20236;-68
2022/12/14 06:53:30;;;;;;;15.57;12.30;;;;;;;2.31;66.25;94618.91;5034627;28;20232;-69
2022/12/14 06:56:22;;;;;;;15.20;13.67;;;;;;;2.28;66.65;94615.72;5027605;28;20227;-69
2022/12/14 06:58:48;;;;;;;14.23;12.77;;;;;;;2.43;66.12;94624.97;5022217;28;20218;-67
2022/12/14 07:01:16;;;;;;;14.87;13.40;;;;;;;2.45;66.19;94625.69;5023882;28;20201;-68
2022/12/14 07:03:46;;;;;;;16.53;14.30;;;;;;;2.23;67.29;94628.19;5041897;28;20228;-68
2022/12/14 07:06:11;;;;;;;16.37;14.77;;;;;;;2.35;67.26;94642.84;5038700;28;20269;-69
2022/12/14 07:08:37;;;;;;;18.10;16.30;;;;;;;2.29;67.64;94649.31;5038949;28;20242;-67
2022/12/14 07:11:08;;;;;;;16.10;14.60;;;;;;;2.35;67.62;94653.22;5043480;28;20222;-67
2022/12/14 07:13:34;;;;;;;15.97;14.37;;;;;;;2.48;67.16;94650.59;5043236;28;20232;-68
2022/12/14 07:16:00;;;;;;;15.30;13.80;;;;;;;2.47;66.62;94638.56;5050778;28;20550;-68
2022/12/14 07:18:27;;;;;;;16.67;14.80;;;;;;;2.45;66.58;94632.66;5046956;28;20230;-68
2022/12/14 07:21:01;;;;;;;18.50;15.93;;;;;;;2.12;67.34;94628.97;5037562;28;20225;-68
2022/12/14 07:23:28;;;;;;;15.67;14.07;;;;;;;2.27;67.23;94627.03;5042295;28;20275;-68
2022/12/14 07:26:05;;;;;;;17.80;15.90;;;;;;;2.31;67.36;94639.66;5045970;28;20221;-66
2022/12/14 07:28:32;;;;;;;17.77;14.93;;;;;;;2.34;66.73;94639.44;5038843;28;20237;-67
2022/12/14 07:30:58;;;;;;;17.20;15.30;;;;;;;2.33;66.57;94636.97;5044143;28;20193;-68
2022/12/14 07:33:25;;;;;;;17.17;15.43;;;;;;;2.37;66.41;94636.63;5043226;28;20262;-69
2022/12/14 07:35:50;;;;;;;19.33;16.50;;;;;;;2.52;66.17;94645.06;5028022;28;20225;-70
2022/12/14 07:38:16;;;;;;;17.07;15.27;;;;;;;2.57;65.72;94644.75;5018687;28;20256;-68
2022/12/14 07:40:42;;;;;;;20.13;17.97;;;;;;;2.49;65.65;94647.88;5025884;28;20245;-68
2022/12/14 07:43:08;;;;;;;16.27;14.20;;;;;;;2.67;65.68;94645.69;5046198;28;20182;-69
2022/12/14 07:45:34;;;;;;;16.87;15.23;;;;;;;2.56;65.46;94650.84;5035503;28;20222;-67
2022/12/14 07:47:59;;;;;;;16.33;14.63;;;;;;;2.61;65.53;94644.38;5039004;28;20304;-67
2022/12/14 07:50:24;;;;;;;14.87;13.37;;;;;;;2.60;65.63;94639.31;5040094;28;20305;-67
2022/12/14 07:52:50;;;;;;;16.00;14.37;;;;;;;2.44;65.95;94642.22;5045021;28;20230;-67
2022/12/14 07:55:16;;;;;;;17.70;14.67;;;;;;;2.49;65.94;94650.47;5058692;28;20691;-66
2022/12/14 07:57:41;;;;;;;15.97;14.43;;;;;;;2.52;66.20;94645.06;5039898;28;20378;-71
2022/12/14 08:00:07;;;;;;;17.13;14.53;;;;;;;2.55;65.81;94638.81;5043634;28;20256;-71
2022/12/14 08:02:32;;;;;;;17.53;13.77;;;;;;;2.35;66.27;94633.31;5037256;28;20210;-71
2022/12/14 08:04:58;;;;;;;24.03;14.13;;;;;;;2.50;66.01;94646.13;5029362;28;20232;-71
2022/12/14 08:07:24;;;;;;;15.97;14.37;;;;;;;2.36;66.34;94647.94;5039788;28;20179;-68
2022/12/14 08:09:49;;;;;;;15.47;13.97;;;;;;;2.36;66.36;94657.50;5040551;28;20198;-65
2022/12/14 08:12:15;;;;;;;16.17;14.47;;;;;;;2.54;66.60;94663.97;5024385;28;20225;-68
2022/12/14 08:14:40;;;;;;;16.63;14.87;;;;;;;2.47;66.01;94662.72;5039061;28;20328;-68
2022/12/14 08:17:05;;;;;;;17.90;16.10;;;;;;;2.38;67.22;94671.19;5035937;28;20238;-67
2022/12/14 08:19:31;;;;;;;18.97;17.00;;;;;;;2.36;67.51;94665.28;5026619;28;20199;-65
2022/12/14 08:21:56;;;;;;;20.43;17.53;;;;;;;2.43;68.08;94675.13;5026249;28;20183;-64
2022/12/14 08:24:22;;;;;;;17.40;15.60;;;;;;;1.99;68.29;94679.09;5026598;28;20229;-67
2022/12/14 08:26:47;;;;;;;19.70;17.00;;;;;;;2.38;67.74;94689.38;5034484;28;20237;-64
2022/12/14 08:29:14;;;;;;;17.73;15.83;;;;;;;2.70;67.24;94696.56;5036075;28;20245;-65
2022/12/14 08:31:40;;;;;;;17.87;16.00;;;;;;;2.82;66.14;94685.28;5049387;28;20228;-64
2022/12/14 08:34:05;;;;;;;18.57;16.67;;;;;;;2.79;66.22;94670.75;5050856;28;20201;-65
2022/12/14 08:36:33;;;;;;;18.10;16.23;;;;;;;2.75;66.26;94684.91;5042056;28;20287;-66
2022/12/14 08:39:04;;;;;;;19.83;17.77;;;;;;;2.92;66.24;94680.25;5046503;28;20210;-67
2022/12/14 08:41:30;;;;;;;20.20;16.37;;;;;;;2.84;65.82;94678.22;5042580;28;20222;-67
2022/12/14 08:43:58;;;;;;;21.27;19.07;;;;;;;2.80;66.52;94662.03;5043304;28;20218;-69
2022/12/14 08:46:25;;;;;;;19.83;17.17;;;;;;;2.64;66.18;94641.56;5031137;28;20264;-67
2022/12/14 08:48:52;;;;;;;21.40;18.10;;;;;;;2.55;66.72;94657.81;5044291;28;20209;-66
2022/12/14 08:51:19;;;;;;;20.27;17.53;;;;;;;2.71;66.70;94669.69;5023631;28;20223;-66
2022/12/14 08:53:48;;;;;;;21.07;18.77;;;;;;;2.64;66.92;94661.50;5025651;28;20232;-65
2022/12/14 08:56:20;;;;;;;20.20;17.90;;;;;;;2.92;66.05;94662.06;5019175;28;20260;-65
2022/12/14 08:58:46;;;;;;;20.80;18.67;;;;;;;2.87;66.41;94658.03;5033405;28;20223;-66
2022/12/14 09:01:14;;;;;;;20.10;17.73;;;;;;;2.92;66.08;94662.06;5020310;28;20192;-66
2022/12/14 09:03:43;;;;;;;19.03;17.17;;;;;;;2.99;66.05;94658.06;5045948;28;20229;-66
2022/12/14 09:06:11;;;;;;;19.43;17.37;;;;;;;2.89;66.50;94652.75;5046124;28;20241;-66
2022/12/14 09:08:37;;;;;;;17.03;14.97;;;;;;;3.08;65.52;94637.44;5036160;28;20249;-66
2022/12/14 09:11:04;;;;;;;17.97;16.00;;;;;;;2.76;66.15;94646.81;5041996;28;20241;-71
2022/12/14 09:13:30;;;;;;;18.47;16.60;;;;;;;3.05;65.53;94650.66;5056613;28;20214;-68
2022/12/14 09:16:02;;;;;;;20.37;16.47;;;;;;;2.98;65.69;94659.84;5039545;28;20188;-67
2022/12/14 09:18:28;;;;;;;17.83;16.03;;;;;;;2.91;66.40;94644.81;5036878;28;20416;-68
2022/12/14 09:20:55;;;;;;;20.13;16.03;;;;;;;2.88;66.63;94635.50;5045827;28;20222;-68
2022/12/14 09:23:22;;;;;;;17.13;15.17;;;;;;;3.03;66.10;94618.75;5044202;28;20260;-71
2022/12/14 09:26:07;;;;;;;15.87;14.37;;;;;;;3.16;65.47;94641.22;5045355;28;20217;-72
2022/12/14 09:28:35;;;;;;;17.63;15.93;;;;;;;3.20;65.51;94646.06;5029656;28;20248;-70
2022/12/14 09:31:05;;;;;;;16.70;15.10;;;;;;;3.17;66.04;94640.28;5046766;28;20229;-70
2022/12/14 09:33:31;;;;;;;17.07;15.23;;;;;;;3.25;65.81;94619.72;5047854;28;20213;-70
2022/12/14 09:36:17;;;;;;;18.73;15.87;;;;;;;3.14;66.55;94623.16;5049752;28;20247;-68
2022/12/14 09:38:43;;;;;;;16.73;15.13;;;;;;;3.30;65.92;94613.22;5046935;28;20245;-69
2022/12/14 09:41:34;;;;;;;17.27;15.40;;;;;;;3.30;65.32;94613.22;5036277;28;20222;-68
2022/12/14 09:44:23;;;;;;;15.53;14.13;;;;;;;3.41;65.53;94628.00;5043871;28;20309;-69
2022/12/14 09:47:04;;;;;;;14.97;13.40;;;;;;;3.14;66.51;94622.31;5041934;28;20256;-67
2022/12/14 09:49:48;;;;;;;12.97;11.77;;;;;;;3.08;66.61;94619.25;5057309;28;20257;-67
2022/12/14 09:52:18;;;;;;;15.07;13.47;;;;;;;3.21;66.72;94623.53;5040887;28;20193;-68
2022/12/14 09:54:46;;;;;;;14.07;12.33;;;;;;;3.43;66.21;94618.31;5035183;28;20301;-68
2022/12/14 09:57:23;;;;;;;14.07;11.80;;;;;;;3.50;65.73;94632.50;5043044;28;20218;-68
2022/12/14 09:59:48;;;;;;;12.97;11.63;;;;;;;3.66;65.41;94626.94;5037760;28;20229;-67
2022/12/14 10:02:25;;;;;;;13.03;11.63;;;;;;;3.61;64.92;94618.69;5037429;28;20243;-66
2022/12/14 10:05:05;;;;;;;12.73;11.47;;;;;;;3.66;64.61;94611.34;5041043;28;20221;-67
2022/12/14 10:07:53;;;;;;;13.13;11.23;;;;;;;3.55;64.70;94593.13;5036394;28;20197;-67
2022/12/14 10:10:27;;;;;;;14.63;11.50;;;;;;;3.37;64.99;94600.59;5036366;28;20210;-67
2022/12/14 10:13:04;;;;;;;13.00;11.00;;;;;;;3.41;65.43;94601.19;5043438;28;20210;-67
2022/12/14 10:15:41;;;;;;;15.30;12.73;;;;;;;3.60;65.15;94603.19;5050585;28;20226;-68
2022/12/14 10:18:18;;;;;;;11.83;10.73;;;;;;;3.78;64.16;94598.31;5053752;28;20226;-68
2022/12/14 10:20:59;;;;;;;13.63;11.63;;;;;;;3.76;64.02;94595.84;5039716;28;20217;-67
2022/12/14 10:23:26;;;;;;;12.10;10.70;;;;;;;3.75;63.73;94599.41;5050630;28;20225;-68
2022/12/14 10:25:56;;;;;;;13.63;10.10;;;;;;;3.85;63.19;94589.91;5043865;28;20305;-68
2022/12/14 10:29:10;;;;;;;11.80;10.50;;;;;;;3.58;63.29;94592.06;5034439;28;20193;-68
2022/12/14 10:31:48;;;;;;;13.03;9.90;;;;;;;3.75;63.00;94591.59;5009197;28;20271;-69
2022/12/14 10:34:23;;;;;;;12.70;9.87;;;;;;;3.85;63.49;94587.31;5004358;28;20360;-68
2022/12/14 10:37:00;;;;;;;14.17;10.70;;;;;;;3.62;63.77;94567.50;5005744;28;20292;-69
2022/12/14 10:39:37;;;;;;;12.97;10.33;;;;;;;3.74;63.27;94561.31;5009343;28;20312;-69
2022/12/14 10:42:15;;;;;;;12.37;10.33;;;;;;;3.76;64.03;94567.22;5018929;28;20466;-69
2022/12/14 10:44:46;;;;;;;11.73;9.60;;;;;;;4.00;62.51;94569.66;5025977;28;20228;-68
2022/12/14 10:47:35;;;;;;;10.60;9.50;;;;;;;4.10;62.01;94560.16;5020850;28;20237;-68
2022/12/14 10:50:18;;;;;;;11.03;9.93;;;;;;;4.09;62.41;94570.69;5000457;28;20238;-68
2022/12/14 10:52:47;;;;;;;12.43;10.57;;;;;;;4.07;62.30;94563.00;5008623;28;20230;-68
2022/12/14 10:55:18;;;;;;;13.10;10.57;;;;;;;4.09;62.81;94558.53;5019469;28;20206;-68
2022/12/14 10:57:44;;;;;;;12.73;10.63;;;;;;;4.04;63.56;94555.47;5015112;28;20309;-68
2022/12/14 11:00:16;;;;;;;12.20;10.50;;;;;;;4.09;62.57;94549.88;5003772;28;20301;-67
2022/12/14 11:02:43;;;;;;;12.40;10.53;;;;;;;4.03;62.88;94555.56;5024575;28;20221;-68
2022/12/14 11:05:33;;;;;;;12.13;10.37;;;;;;;4.12;62.78;94554.84;5041253;28;20222;-67
2022/12/14 11:07:59;;;;;;;13.73;9.87;;;;;;;3.93;62.79;94539.91;5036078;28;20210;-67
2022/12/14 11:10:31;;;;;;;14.83;11.57;;;;;;;4.05;63.52;94545.88;5035973;28;20196;-67
2022/12/14 11:13:11;;;;;;;11.20;10.10;;;;;;;4.06;62.78;94555.31;5040698;28;20202;-67
2022/12/14 11:15:43;;;;;;;12.67;10.47;;;;;;;3.98;63.18;94538.56;5036464;28;20217;-68
2022/12/14 11:18:14;;;;;;;11.60;8.97;;;;;;;4.14;61.82;94527.75;5042383;28;20234;-68
2022/12/14 11:20:56;;;;;;;13.10;9.27;;;;;;;4.14;62.54;94540.75;5035070;28;20229;-68
2022/12/14 11:23:38;;;;;;;12.37;10.40;;;;;;;4.29;62.88;94525.66;5043317;28;20226;-67
2022/12/14 11:26:08;;;;;;;12.53;10.27;;;;;;;4.30;62.30;94532.50;5036003;28;20256;-66
2022/12/14 11:28:53;;;;;;;16.47;14.77;;;;;;;4.37;63.34;94533.66;5039689;28;20190;-66
2022/12/14 11:31:27;;;;;;;13.53;10.90;;;;;;;4.37;62.55;94517.22;5039328;28;20189;-67
2022/12/14 11:33:55;;;;;;;15.77;12.33;;;;;;;4.48;63.42;94522.38;5015451;28;20234;-67
2022/12/14 11:36:35;;;;;;;12.67;11.33;;;;;;;4.72;63.03;94527.31;5035856;28;20249;-67
2022/12/14 11:39:05;;;;;;;21.00;16.23;;;;;;;4.83;61.96;94519.41;5031267;28;20222;-67
2022/12/14 11:41:37;;;;;;;12.37;10.80;;;;;;;4.83;61.85;94510.78;5023331;28;20227;-67
2022/12/14 11:44:25;;;;;;;11.87;10.07;;;;;;;4.68;61.80;94519.88;5025115;28;20317;-68
2022/12/14 11:46:57;;;;;;;12.53;9.30;;;;;;;4.50;61.96;94522.25;5041020;28;20221;-68
2022/12/14 11:49:28;;;;;;;12.43;9.07;;;;;;;4.40;63.06;94514.38;5037508;28;20241;-68
2022/12/14 11:51:55;;;;;;;11.57;9.53;;;;;;;4.25;63.36;94529.47;5038618;28;20189;-68
2022/12/14 11:54:20;;;;;;;11.13;9.10;;;;;;;3.97;61.93;94512.66;5052969;28;20264;-68
2022/12/14 11:56:49;;;;;;;12.87;9.17;;;;;;;3.89;63.27;94502.06;5042440;28;20261;-70
2022/12/14 11:59:17;;;;;;;12.37;9.73;;;;;;;3.98;63.63;94502.16;5047145;28;20231;-70
2022/12/14 12:01:43;;;;;;;10.57;8.57;;;;;;;4.31;60.38;94515.13;5026318;28;20221;-67
2022/12/14 12:04:14;;;;;;;10.20;9.00;;;;;;;4.15;61.21;94507.75;5044097;28;20275;-66